createdAt,value
2023-10-09T00:00:36.920Z,7.99
2023-10-09T00:03:44.799Z,7.96
2023-10-09T00:06:47.960Z,7.93
2023-10-09T00:09:52.127Z,8.01
2023-10-09T00:12:54.725Z,8.00
2023-10-09T00:16:02.918Z,7.98
2023-10-09T00:19:20.897Z,7.98
2023-10-09T00:22:31.121Z,7.99
2023-10-09T00:25:37.451Z,8.04
2023-10-09T00:28:44.828Z,8.14
2023-10-09T00:31:51.381Z,8.22
2023-10-09T00:34:59.459Z,8.27
2023-10-09T00:38:08.320Z,8.33
2023-10-09T00:41:12.004Z,8.40
2023-10-09T00:44:15.495Z,8.45
2023-10-09T00:47:22.045Z,8.48
2023-10-09T00:50:25.196Z,8.55
2023-10-09T00:53:34.608Z,8.58
2023-10-09T00:56:44.343Z,8.58
2023-10-09T00:59:52.141Z,8.63
2023-10-09T01:03:11.832Z,8.63
2023-10-09T01:06:15.003Z,8.64
2023-10-09T01:09:24.406Z,8.59
2023-10-09T01:12:30.180Z,8.60
2023-10-09T01:15:46.092Z,8.60
2023-10-09T01:18:54.394Z,8.54
2023-10-09T01:22:03.896Z,8.57
2023-10-09T01:25:07.746Z,8.54
2023-10-09T01:28:10.465Z,8.54
2023-10-09T01:31:13.903Z,8.56
2023-10-09T01:34:16.988Z,8.62
2023-10-09T01:37:24.357Z,8.59
2023-10-09T01:40:36.632Z,8.53
2023-10-09T01:43:39.994Z,8.61
2023-10-09T01:46:44.238Z,8.55
2023-10-09T01:49:50.660Z,8.60
2023-10-09T01:52:53.571Z,8.62
2023-10-09T01:55:56.917Z,8.62
2023-10-09T01:59:06.825Z,8.51
2023-10-09T02:02:27.189Z,8.53
2023-10-09T02:05:34.821Z,8.53
2023-10-09T02:08:37.781Z,7.98
2023-10-09T02:11:42.410Z,8.59
2023-10-09T02:14:45.337Z,8.57
2023-10-09T02:18:02.067Z,8.43
2023-10-09T02:21:07.659Z,8.37
2023-10-09T02:24:10.844Z,8.24
2023-10-09T02:27:14.191Z,8.09
2023-10-09T02:30:18.701Z,8.06
2023-10-09T02:33:29.122Z,7.94
2023-10-09T02:36:32.333Z,8.00
2023-10-09T02:39:44.617Z,7.86
2023-10-09T02:42:47.681Z,7.78
2023-10-09T02:45:52.754Z,7.80
2023-10-09T02:48:59.296Z,7.84
2023-10-09T02:52:07.896Z,7.88
2023-10-09T02:55:14.761Z,7.88
2023-10-09T02:58:22.235Z,7.92
2023-10-09T03:01:25.132Z,7.86
2023-10-09T03:04:32.262Z,7.82
2023-10-09T03:07:35.506Z,7.85
2023-10-09T03:10:39.968Z,7.91
2023-10-09T03:13:44.825Z,7.90
2023-10-09T03:16:50.186Z,7.84
2023-10-09T03:19:53.509Z,7.97
2023-10-09T03:22:57.042Z,7.92
2023-10-09T03:26:15.033Z,7.91
2023-10-09T03:29:26.279Z,7.97
2023-10-09T03:32:29.261Z,8.01
2023-10-09T03:35:35.258Z,8.06
2023-10-09T03:38:39.530Z,8.08
2023-10-09T03:41:43.237Z,7.90
2023-10-09T03:44:53.323Z,8.13
2023-10-09T03:48:06.796Z,8.16
2023-10-09T03:51:10.296Z,8.22
2023-10-09T03:54:15.188Z,8.26
2023-10-09T03:57:21.320Z,8.36
2023-10-09T04:00:28.952Z,8.43
2023-10-09T04:03:32.104Z,8.39
2023-10-09T04:06:36.559Z,8.44
2023-10-09T04:09:45.687Z,8.50
2023-10-09T04:12:50.631Z,8.49
2023-10-09T04:15:54.837Z,8.54
2023-10-09T04:19:07.005Z,8.62
2023-10-09T04:22:26.375Z,8.67
2023-10-09T04:25:43.381Z,8.65
2023-10-09T04:28:52.480Z,8.58
2023-10-09T04:32:01.498Z,8.63
2023-10-09T04:35:25.758Z,8.63
2023-10-09T04:38:29.345Z,8.55
2023-10-09T04:41:44.421Z,8.59
2023-10-09T04:45:05.753Z,8.54
2023-10-09T04:48:09.230Z,8.75
2023-10-09T04:51:30.946Z,8.79
2023-10-09T04:55:02.940Z,8.78
2023-10-09T04:58:08.476Z,8.79
2023-10-09T05:01:15.787Z,8.82
2023-10-09T05:04:36.553Z,8.85
2023-10-09T05:07:55.798Z,8.90
2023-10-09T05:11:02.088Z,8.90
2023-10-09T05:14:14.511Z,8.97
2023-10-09T05:17:17.443Z,8.97
2023-10-09T05:20:29.696Z,10.37
2023-10-09T05:23:45.508Z,9.77
2023-10-09T05:26:50.394Z,9.70
2023-10-09T05:30:14.187Z,9.56
2023-10-09T05:33:29.549Z,9.45
2023-10-09T05:36:33.220Z,9.38
2023-10-09T05:39:42.846Z,9.38
2023-10-09T05:42:46.864Z,9.39
2023-10-09T05:46:08.496Z,9.39
2023-10-09T05:49:21.178Z,9.37
2023-10-09T05:52:53.796Z,9.37
2023-10-09T05:56:15.012Z,9.39
2023-10-09T05:59:53.109Z,10.06
2023-10-09T06:03:14.070Z,9.77
2023-10-09T06:06:34.216Z,9.83
2023-10-09T06:09:51.284Z,9.58
2023-10-09T06:13:05.017Z,9.56
2023-10-09T06:16:20.971Z,9.53
2023-10-09T06:19:27.840Z,9.53
2023-10-09T06:22:49.054Z,9.35
2023-10-09T06:26:02.038Z,9.17
2023-10-09T06:29:17.610Z,9.41
2023-10-09T06:32:20.675Z,9.48
2023-10-09T06:35:23.597Z,9.42
2023-10-09T06:38:41.450Z,9.59
2023-10-09T06:41:46.510Z,9.51
2023-10-09T06:44:55.561Z,9.40
2023-10-09T06:48:08.790Z,9.39
2023-10-09T06:51:42.183Z,9.40
2023-10-09T06:54:51.496Z,9.40
2023-10-09T06:57:55.708Z,9.65
2023-10-09T07:01:16.876Z,9.77
2023-10-09T07:04:20.860Z,9.82
2023-10-09T07:07:25.892Z,9.87
2023-10-09T07:10:33.974Z,9.86
2023-10-09T07:13:38.327Z,9.88
2023-10-09T07:16:58.260Z,9.99
2023-10-09T07:20:36.653Z,9.87
2023-10-09T07:23:49.251Z,9.90
2023-10-09T07:26:54.614Z,9.90
2023-10-09T07:29:57.682Z,9.93
2023-10-09T07:33:12.603Z,10.07
2023-10-09T07:36:15.986Z,10.03
2023-10-09T07:39:18.758Z,10.20
2023-10-09T07:42:34.615Z,10.16
2023-10-09T07:45:37.592Z,10.42
2023-10-09T07:48:49.844Z,10.46
2023-10-09T07:51:53.778Z,10.37
2023-10-09T07:55:03.673Z,10.24
2023-10-09T07:58:12.005Z,10.32
2023-10-09T08:01:23.660Z,10.35
2023-10-09T08:04:41.166Z,10.28
2023-10-09T08:08:05.232Z,10.17
2023-10-09T08:11:29.845Z,10.29
2023-10-09T08:14:34.945Z,10.28
2023-10-09T08:17:38.788Z,10.37
2023-10-09T08:20:59.526Z,10.50
2023-10-09T08:24:06.370Z,10.47
2023-10-09T08:27:29.145Z,10.60
2023-10-09T08:30:47.955Z,10.81
2023-10-09T08:37:06.126Z,10.89
2023-10-09T08:40:10.242Z,10.84
2023-10-09T08:43:17.626Z,10.86
2023-10-09T08:46:29.891Z,10.85
2023-10-09T08:49:35.696Z,10.84
2023-10-09T08:52:38.937Z,10.59
2023-10-09T08:55:42.447Z,10.66
2023-10-09T08:58:45.226Z,10.61
2023-10-09T09:01:59.519Z,10.62
2023-10-09T09:05:17.894Z,10.67
2023-10-09T09:08:27.156Z,10.60
2023-10-09T09:11:36.996Z,10.76
2023-10-09T09:14:40.170Z,10.96
2023-10-09T09:17:43.579Z,10.97
2023-10-09T09:20:54.775Z,10.99
2023-10-09T09:24:02.795Z,10.88
2023-10-09T09:27:19.828Z,10.88
2023-10-09T09:30:36.689Z,10.84
2023-10-09T09:33:43.743Z,10.81
2023-10-09T09:36:59.717Z,10.76
2023-10-09T09:40:24.295Z,10.87
2023-10-09T09:43:30.036Z,10.86
2023-10-09T09:46:38.583Z,11.02
2023-10-09T09:49:44.563Z,11.24
2023-10-09T09:52:48.203Z,11.19
2023-10-09T09:55:59.301Z,11.33
2023-10-09T09:59:05.574Z,11.34
2023-10-09T10:02:12.002Z,11.28
2023-10-09T10:05:17.307Z,11.28
2023-10-09T10:08:21.501Z,11.48
2023-10-09T10:11:47.291Z,11.39
2023-10-09T10:15:00.799Z,11.79
2023-10-09T10:18:08.479Z,11.88
2023-10-09T10:21:17.198Z,11.89
2023-10-09T10:24:52.838Z,12.25
2023-10-09T10:28:40.472Z,12.20
2023-10-09T10:31:57.744Z,12.57
2023-10-09T10:35:07.878Z,12.53
2023-10-09T10:38:35.310Z,13.00
2023-10-09T10:41:55.361Z,13.09
2023-10-09T10:44:58.225Z,13.34
2023-10-09T10:48:07.931Z,14.43
2023-10-09T10:51:12.748Z,14.48
2023-10-09T10:54:34.846Z,14.13
2023-10-09T10:57:56.524Z,14.08
2023-10-09T11:00:59.193Z,14.08
2023-10-09T11:04:13.748Z,14.65
2023-10-09T11:07:25.858Z,15.59
2023-10-09T11:10:30.394Z,15.87
2023-10-09T11:13:53.598Z,16.69
2023-10-09T11:17:00.057Z,16.64
2023-10-09T11:20:24.259Z,16.79
2023-10-09T11:23:36.220Z,17.48
2023-10-09T11:26:41.722Z,18.31
2023-10-09T11:29:53.321Z,17.78
2023-10-09T11:33:15.436Z,16.81
2023-10-09T11:36:32.463Z,16.42
2023-10-09T11:39:36.131Z,16.16
2023-10-09T11:42:39.721Z,15.82
2023-10-09T11:45:55.646Z,15.49
2023-10-09T11:49:21.032Z,15.09
2023-10-09T11:52:36.634Z,14.66
2023-10-09T11:55:39.863Z,14.51
2023-10-09T11:58:42.549Z,14.42
2023-10-09T12:01:53.420Z,14.20
2023-10-09T12:04:57.174Z,14.00
2023-10-09T12:08:02.454Z,14.06
2023-10-09T12:11:09.488Z,13.82
2023-10-09T12:14:12.587Z,13.69
2023-10-09T12:17:15.577Z,13.66
2023-10-09T12:20:38.564Z,13.54
2023-10-09T12:23:42.297Z,13.42
2023-10-09T12:26:47.070Z,13.40
2023-10-09T12:29:50.889Z,13.31
2023-10-09T12:32:56.121Z,13.26
2023-10-09T12:36:02.763Z,13.35
2023-10-09T12:39:06.906Z,13.51
2023-10-09T12:42:10.286Z,13.62
2023-10-09T12:45:14.030Z,13.51
2023-10-09T12:48:17.120Z,13.46
2023-10-09T12:51:19.824Z,13.37
2023-10-09T12:54:28.427Z,13.36
2023-10-09T12:57:31.327Z,13.36
2023-10-09T13:00:38.324Z,13.22
2023-10-09T13:03:41.436Z,13.45
2023-10-09T13:06:47.796Z,13.49
2023-10-09T13:10:09.478Z,13.35
2023-10-09T13:13:12.997Z,13.33
2023-10-09T13:16:26.062Z,13.33
2023-10-09T13:19:29.315Z,13.24
2023-10-09T13:22:31.883Z,13.14
2023-10-09T13:25:41.008Z,13.06
2023-10-09T13:28:46.439Z,12.92
2023-10-09T13:31:52.537Z,12.83
2023-10-09T13:34:56.755Z,12.83
2023-10-09T13:38:00.289Z,12.73
2023-10-09T13:41:03.145Z,12.70
2023-10-09T13:44:06.168Z,12.76
2023-10-09T13:47:20.318Z,13.72
2023-10-09T13:50:31.796Z,13.58
2023-10-09T13:53:45.968Z,13.17
2023-10-09T13:56:54.218Z,12.97
2023-10-09T13:59:57.184Z,12.73
2023-10-09T14:03:12.582Z,12.71
2023-10-09T14:06:15.598Z,12.63
2023-10-09T14:09:33.299Z,12.63
2023-10-09T14:12:41.361Z,12.58
2023-10-09T14:15:47.134Z,12.58
2023-10-09T14:18:50.061Z,12.60
2023-10-09T14:21:52.759Z,12.53
2023-10-09T14:25:00.544Z,12.40
2023-10-09T14:28:08.668Z,12.42
2023-10-09T14:31:13.788Z,12.28
2023-10-09T14:34:16.364Z,12.16
2023-10-09T14:37:20.604Z,12.08
2023-10-09T14:40:31.115Z,12.07
2023-10-09T14:43:35.253Z,12.00
2023-10-09T14:46:38.126Z,11.99
2023-10-09T14:49:48.174Z,11.85
2023-10-09T14:52:54.555Z,11.80
2023-10-09T14:55:58.139Z,11.80
2023-10-09T14:59:01.249Z,11.85
2023-10-09T15:02:06.555Z,11.87
2023-10-09T15:05:13.277Z,11.83
2023-10-09T15:08:16.477Z,11.86
2023-10-09T15:11:26.476Z,11.83
2023-10-09T15:14:29.596Z,11.77
2023-10-09T15:17:32.340Z,11.74
2023-10-09T15:20:36.429Z,11.70
2023-10-09T15:23:39.173Z,11.56
2023-10-09T15:26:58.281Z,11.68
2023-10-09T15:30:00.970Z,11.66
2023-10-09T15:33:06.267Z,11.61
2023-10-09T15:36:14.157Z,11.52
2023-10-09T15:39:20.721Z,11.47
2023-10-09T15:42:23.682Z,11.42
2023-10-09T15:45:29.444Z,11.44
2023-10-09T15:48:33.781Z,11.45
2023-10-09T15:51:36.669Z,11.51
2023-10-09T15:54:41.446Z,11.47
2023-10-09T15:57:44.272Z,11.45
2023-10-09T16:00:46.866Z,11.36
2023-10-09T16:03:51.113Z,11.35
2023-10-09T16:06:56.665Z,11.30
2023-10-09T16:10:00.011Z,11.23
2023-10-09T16:13:02.769Z,11.18
2023-10-09T16:16:09.234Z,11.04
2023-10-09T16:19:12.289Z,10.97
2023-10-09T16:22:15.111Z,10.88
2023-10-09T16:25:21.781Z,12.21
2023-10-09T16:28:26.047Z,11.55
2023-10-09T16:31:28.828Z,11.38
2023-10-09T16:34:33.616Z,11.17
2023-10-09T16:37:36.261Z,11.05
2023-10-09T16:40:40.505Z,10.97
2023-10-09T16:43:43.755Z,10.94
2023-10-09T16:46:47.531Z,10.99
2023-10-09T16:49:52.827Z,10.99
2023-10-09T16:52:56.211Z,10.95
2023-10-09T16:56:02.121Z,10.92
2023-10-09T16:59:09.174Z,10.84
2023-10-09T17:02:14.549Z,10.76
2023-10-09T17:05:29.204Z,10.73
2023-10-09T17:08:35.901Z,10.68
2023-10-09T17:11:42.693Z,10.66
2023-10-09T17:14:46.062Z,10.64
2023-10-09T17:17:51.994Z,10.63
2023-10-09T17:20:55.969Z,10.68
2023-10-09T17:23:59.649Z,10.69
2023-10-09T17:27:02.923Z,10.68
2023-10-09T17:30:06.823Z,10.67
2023-10-09T17:33:09.746Z,10.69
2023-10-09T17:36:18.959Z,10.73
2023-10-09T17:39:27.314Z,10.77
2023-10-09T17:42:30.910Z,11.14
2023-10-09T17:45:42.375Z,10.96
2023-10-09T17:48:46.375Z,10.92
2023-10-09T17:51:49.434Z,10.78
2023-10-09T17:54:53.642Z,10.81
2023-10-09T17:57:57.266Z,10.78
2023-10-09T18:01:05.434Z,10.79
2023-10-09T18:04:08.813Z,10.76
2023-10-09T18:07:14.832Z,10.82
2023-10-09T18:10:17.868Z,10.79
2023-10-09T18:13:20.639Z,10.62
2023-10-09T18:16:24.201Z,10.67
2023-10-09T18:19:30.175Z,10.69
2023-10-09T18:22:33.268Z,11.55
2023-10-09T18:25:41.418Z,11.73
2023-10-09T18:28:49.572Z,11.44
2023-10-09T18:31:52.576Z,11.19
2023-10-09T18:34:55.998Z,11.03
2023-10-09T18:38:01.699Z,10.86
2023-10-09T18:41:08.640Z,10.74
2023-10-09T18:44:11.668Z,10.71
2023-10-09T18:47:20.601Z,10.51
2023-10-09T18:50:25.869Z,10.60
2023-10-09T18:53:32.854Z,10.58
2023-10-09T18:56:35.860Z,10.52
2023-10-09T18:59:38.721Z,10.55
2023-10-09T19:02:41.440Z,10.46
2023-10-09T19:05:45.766Z,10.45
2023-10-09T19:08:50.356Z,10.35
2023-10-09T19:11:58.092Z,10.25
2023-10-09T19:15:00.984Z,10.09
2023-10-09T19:18:04.926Z,10.00
2023-10-09T19:21:12.297Z,9.76
2023-10-09T19:24:15.262Z,9.64
2023-10-09T19:27:19.552Z,9.41
2023-10-09T19:30:22.989Z,9.31
2023-10-09T19:33:26.725Z,9.27
2023-10-09T19:36:30.419Z,9.14
2023-10-09T19:39:33.424Z,9.05
2023-10-09T19:42:40.461Z,8.90
2023-10-09T19:45:43.232Z,8.89
2023-10-09T19:48:47.457Z,8.96
2023-10-09T19:51:52.590Z,8.86
2023-10-09T19:54:57.514Z,8.97
2023-10-09T19:58:01.640Z,8.99
2023-10-09T20:01:12.357Z,8.92
2023-10-09T20:04:16.830Z,8.85
2023-10-09T20:07:19.492Z,8.89
2023-10-09T20:10:22.485Z,8.79
2023-10-09T20:13:25.174Z,8.80
2023-10-09T20:16:28.371Z,8.73
2023-10-09T20:19:32.787Z,8.76
2023-10-09T20:22:36.487Z,8.78
2023-10-09T20:25:39.093Z,8.79
2023-10-09T20:28:42.126Z,8.70
2023-10-09T20:31:48.408Z,8.79
2023-10-09T20:34:58.055Z,8.75
2023-10-09T20:38:03.067Z,8.71
2023-10-09T20:41:09.084Z,8.70
2023-10-09T20:44:13.818Z,8.52
2023-10-09T20:47:16.950Z,8.67
2023-10-09T20:50:19.547Z,8.64
2023-10-09T20:53:22.424Z,8.64
2023-10-09T20:56:26.384Z,8.61
2023-10-09T20:59:29.380Z,8.59
2023-10-09T21:02:32.223Z,8.61
2023-10-09T21:05:36.278Z,8.60
2023-10-09T21:08:39.353Z,8.64
2023-10-09T21:11:42.585Z,8.62
2023-10-09T21:14:45.147Z,8.68
2023-10-09T21:17:53.454Z,8.61
2023-10-09T21:20:56.372Z,8.62
2023-10-09T21:23:59.617Z,8.70
2023-10-09T21:27:02.250Z,8.60
2023-10-09T21:30:07.330Z,8.65
2023-10-09T21:33:10.050Z,8.61
2023-10-09T21:36:14.024Z,8.82
2023-10-09T21:39:18.946Z,8.82
2023-10-09T21:42:21.827Z,8.78
2023-10-09T21:45:25.554Z,8.90
2023-10-09T21:48:28.326Z,8.88
2023-10-09T21:51:30.942Z,8.91
2023-10-09T21:54:33.824Z,8.89
2023-10-09T21:57:36.782Z,8.89
2023-10-09T22:00:39.583Z,8.92
2023-10-09T22:03:42.805Z,8.89
2023-10-09T22:06:45.546Z,8.80
2023-10-09T22:09:48.808Z,8.83
2023-10-09T22:12:51.424Z,8.81
2023-10-09T22:15:55.060Z,8.80
2023-10-09T22:19:13.518Z,8.81
2023-10-09T22:22:23.540Z,8.83
2023-10-09T22:25:26.883Z,8.85
2023-10-09T22:28:35.567Z,8.79
2023-10-09T22:31:40.006Z,8.81
2023-10-09T22:34:43.284Z,8.71
2023-10-09T22:37:46.069Z,8.70
2023-10-09T22:40:53.026Z,8.82
2023-10-09T22:43:57.021Z,8.85
2023-10-09T22:47:09.319Z,8.84
2023-10-09T22:50:22.203Z,8.66
2023-10-09T22:53:39.013Z,8.84
2023-10-09T22:56:44.745Z,8.89
2023-10-09T22:59:51.739Z,8.95
2023-10-09T23:02:58.172Z,8.99
2023-10-09T23:06:10.077Z,8.95
2023-10-09T23:09:16.959Z,8.92
2023-10-09T23:12:26.388Z,8.96
2023-10-09T23:15:34.034Z,8.97
2023-10-09T23:19:06.549Z,8.92
2023-10-09T23:22:21.060Z,8.91
2023-10-09T23:25:35.990Z,8.86
2023-10-09T23:28:39.539Z,8.86
2023-10-09T23:31:57.862Z,8.91
2023-10-09T23:35:00.625Z,8.90
2023-10-09T23:38:32.995Z,8.95
2023-10-09T23:41:35.981Z,9.02
2023-10-09T23:44:38.946Z,8.91
2023-10-09T23:47:42.511Z,8.93
2023-10-09T23:50:45.738Z,8.82
2023-10-09T23:54:02.326Z,8.79
2023-10-09T23:57:06.927Z,8.83
